sensor_id;sensor_type;location;lat;lon;timestamp;P1;durP1;ratioP1;P2;durP2;ratioP2
75892;SDS011;64572;50.950;3.676;2022-12-29T00:01:47;2.95;;;1.13;;
75892;SDS011;64572;50.950;3.676;2022-12-29T00:04:13;3.38;;;1.25;;
75892;SDS011;64572;50.950;3.676;2022-12-29T00:06:40;3.58;;;1.20;;
75892;SDS011;64572;50.950;3.676;2022-12-29T00:09:07;2.97;;;1.08;;
75892;SDS011;64572;50.950;3.676;2022-12-29T00:11:33;4.53;;;1.10;;
75892;SDS011;64572;50.950;3.676;2022-12-29T00:13:59;4.32;;;1.40;;
75892;SDS011;64572;50.950;3.676;2022-12-29T00:16:44;5.35;;;1.25;;
75892;SDS011;64572;50.950;3.676;2022-12-29T00:19:10;1.60;;;0.98;;
75892;SDS011;64572;50.950;3.676;2022-12-29T00:21:56;5.72;;;1.30;;
75892;SDS011;64572;50.950;3.676;2022-12-29T00:24:41;4.88;;;1.40;;
75892;SDS011;64572;50.950;3.676;2022-12-29T00:27:26;4.63;;;1.30;;
75892;SDS011;64572;50.950;3.676;2022-12-29T00:30:12;3.92;;;1.20;;
75892;SDS011;64572;50.950;3.676;2022-12-29T00:32:59;5.00;;;1.23;;
75892;SDS011;64572;50.950;3.676;2022-12-29T00:35:55;8.02;;;1.30;;
75892;SDS011;64572;50.950;3.676;2022-12-29T00:38:24;8.25;;;1.27;;
75892;SDS011;64572;50.950;3.676;2022-12-29T00:41:09;5.82;;;1.00;;
75892;SDS011;64572;50.950;3.676;2022-12-29T00:43:53;5.82;;;1.10;;
75892;SDS011;64572;50.950;3.676;2022-12-29T00:46:31;8.30;;;1.10;;
75892;SDS011;64572;50.950;3.676;2022-12-29T00:48:57;5.07;;;1.20;;
75892;SDS011;64572;50.950;3.676;2022-12-29T00:51:42;2.28;;;0.90;;
75892;SDS011;64572;50.950;3.676;2022-12-29T00:54:07;3.22;;;0.93;;
75892;SDS011;64572;50.950;3.676;2022-12-29T00:56:34;7.13;;;1.25;;
75892;SDS011;64572;50.950;3.676;2022-12-29T00:59:00;7.25;;;1.30;;
75892;SDS011;64572;50.950;3.676;2022-12-29T01:01:27;4.07;;;1.10;;
75892;SDS011;64572;50.950;3.676;2022-12-29T01:03:52;6.50;;;1.15;;
75892;SDS011;64572;50.950;3.676;2022-12-29T01:06:18;7.25;;;1.30;;
75892;SDS011;64572;50.950;3.676;2022-12-29T01:08:44;10.88;;;1.85;;
75892;SDS011;64572;50.950;3.676;2022-12-29T01:11:10;5.28;;;1.05;;
75892;SDS011;64572;50.950;3.676;2022-12-29T01:13:37;5.95;;;1.52;;
75892;SDS011;64572;50.950;3.676;2022-12-29T01:16:04;7.63;;;1.23;;
75892;SDS011;64572;50.950;3.676;2022-12-29T01:18:31;7.60;;;1.48;;
75892;SDS011;64572;50.950;3.676;2022-12-29T01:21:04;5.63;;;1.35;;
75892;SDS011;64572;50.950;3.676;2022-12-29T01:23:31;5.25;;;1.25;;
75892;SDS011;64572;50.950;3.676;2022-12-29T01:25:57;8.50;;;1.20;;
75892;SDS011;64572;50.950;3.676;2022-12-29T01:28:32;6.68;;;1.15;;
75892;SDS011;64572;50.950;3.676;2022-12-29T01:30:59;8.38;;;1.25;;
75892;SDS011;64572;50.950;3.676;2022-12-29T01:33:26;10.98;;;1.60;;
75892;SDS011;64572;50.950;3.676;2022-12-29T01:35:51;9.18;;;1.23;;
75892;SDS011;64572;50.950;3.676;2022-12-29T01:38:17;9.40;;;1.17;;
75892;SDS011;64572;50.950;3.676;2022-12-29T01:40:43;7.30;;;1.67;;
75892;SDS011;64572;50.950;3.676;2022-12-29T01:43:11;7.27;;;1.10;;
75892;SDS011;64572;50.950;3.676;2022-12-29T01:45:39;9.98;;;1.27;;
75892;SDS011;64572;50.950;3.676;2022-12-29T01:48:10;6.95;;;1.23;;
75892;SDS011;64572;50.950;3.676;2022-12-29T01:50:50;10.00;;;1.30;;
75892;SDS011;64572;50.950;3.676;2022-12-29T01:53:21;7.68;;;1.25;;
75892;SDS011;64572;50.950;3.676;2022-12-29T01:55:55;7.40;;;1.40;;
75892;SDS011;64572;50.950;3.676;2022-12-29T01:58:24;7.05;;;1.10;;
75892;SDS011;64572;50.950;3.676;2022-12-29T02:00:54;8.68;;;1.42;;
75892;SDS011;64572;50.950;3.676;2022-12-29T02:03:20;6.70;;;1.08;;
75892;SDS011;64572;50.950;3.676;2022-12-29T02:05:55;9.40;;;1.67;;
75892;SDS011;64572;50.950;3.676;2022-12-29T02:08:35;3.58;;;1.20;;
75892;SDS011;64572;50.950;3.676;2022-12-29T02:11:02;6.25;;;1.45;;
75892;SDS011;64572;50.950;3.676;2022-12-29T02:13:28;9.32;;;1.17;;
75892;SDS011;64572;50.950;3.676;2022-12-29T02:29:26;7.43;;;1.20;;
75892;SDS011;64572;50.950;3.676;2022-12-29T02:38:25;5.55;;;1.02;;
75892;SDS011;64572;50.950;3.676;2022-12-29T02:40:53;9.25;;;1.67;;
75892;SDS011;64572;50.950;3.676;2022-12-29T02:46:20;5.40;;;1.00;;
75892;SDS011;64572;50.950;3.676;2022-12-29T02:54:20;8.00;;;1.25;;
75892;SDS011;64572;50.950;3.676;2022-12-29T02:57:11;7.35;;;1.40;;
75892;SDS011;64572;50.950;3.676;2022-12-29T02:59:41;10.88;;;1.40;;
75892;SDS011;64572;50.950;3.676;2022-12-29T03:07:24;6.50;;;1.00;;
75892;SDS011;64572;50.950;3.676;2022-12-29T03:10:11;7.53;;;1.50;;
75892;SDS011;64572;50.950;3.676;2022-12-29T03:15:42;8.35;;;1.20;;
75892;SDS011;64572;50.950;3.676;2022-12-29T03:21:13;5.57;;;1.25;;
75892;SDS011;64572;50.950;3.676;2022-12-29T03:24:08;8.32;;;1.30;;
75892;SDS011;64572;50.950;3.676;2022-12-29T03:26:34;13.88;;;1.65;;
75892;SDS011;64572;50.950;3.676;2022-12-29T03:29:02;8.50;;;1.50;;
75892;SDS011;64572;50.950;3.676;2022-12-29T03:33:55;7.30;;;1.30;;
75892;SDS011;64572;50.950;3.676;2022-12-29T03:36:26;10.63;;;1.63;;
75892;SDS011;64572;50.950;3.676;2022-12-29T03:39:02;10.05;;;1.58;;
75892;SDS011;64572;50.950;3.676;2022-12-29T03:41:37;8.98;;;1.40;;
75892;SDS011;64572;50.950;3.676;2022-12-29T03:44:09;10.98;;;1.50;;
75892;SDS011;64572;50.950;3.676;2022-12-29T03:46:36;11.07;;;1.90;;
75892;SDS011;64572;50.950;3.676;2022-12-29T03:49:02;9.82;;;1.25;;
75892;SDS011;64572;50.950;3.676;2022-12-29T03:51:27;16.25;;;1.90;;
75892;SDS011;64572;50.950;3.676;2022-12-29T03:53:53;12.18;;;1.73;;
75892;SDS011;64572;50.950;3.676;2022-12-29T03:56:18;12.05;;;1.40;;
75892;SDS011;64572;50.950;3.676;2022-12-29T03:58:44;13.82;;;1.80;;
75892;SDS011;64572;50.950;3.676;2022-12-29T04:01:10;7.95;;;1.60;;
75892;SDS011;64572;50.950;3.676;2022-12-29T04:03:35;13.02;;;2.08;;
75892;SDS011;64572;50.950;3.676;2022-12-29T04:06:01;12.13;;;1.63;;
75892;SDS011;64572;50.950;3.676;2022-12-29T04:08:27;12.63;;;1.77;;
75892;SDS011;64572;50.950;3.676;2022-12-29T04:10:53;10.68;;;1.58;;
75892;SDS011;64572;50.950;3.676;2022-12-29T04:13:18;14.50;;;1.85;;
75892;SDS011;64572;50.950;3.676;2022-12-29T04:15:44;15.63;;;2.45;;
75892;SDS011;64572;50.950;3.676;2022-12-29T04:18:10;11.43;;;1.30;;
75892;SDS011;64572;50.950;3.676;2022-12-29T04:20:36;17.27;;;2.10;;
75892;SDS011;64572;50.950;3.676;2022-12-29T04:23:21;18.38;;;2.75;;
75892;SDS011;64572;50.950;3.676;2022-12-29T04:25:47;12.45;;;1.38;;
75892;SDS011;64572;50.950;3.676;2022-12-29T04:28:13;10.25;;;1.25;;
75892;SDS011;64572;50.950;3.676;2022-12-29T04:30:39;11.95;;;1.95;;
75892;SDS011;64572;50.950;3.676;2022-12-29T04:33:05;10.57;;;1.35;;
75892;SDS011;64572;50.950;3.676;2022-12-29T04:35:31;11.27;;;1.80;;
75892;SDS011;64572;50.950;3.676;2022-12-29T04:37:57;12.25;;;1.52;;
75892;SDS011;64572;50.950;3.676;2022-12-29T04:40:22;9.00;;;1.33;;
75892;SDS011;64572;50.950;3.676;2022-12-29T04:42:49;13.95;;;1.70;;
75892;SDS011;64572;50.950;3.676;2022-12-29T04:45:16;8.70;;;1.70;;
75892;SDS011;64572;50.950;3.676;2022-12-29T04:47:42;13.45;;;1.67;;
75892;SDS011;64572;50.950;3.676;2022-12-29T04:50:08;9.10;;;1.90;;
75892;SDS011;64572;50.950;3.676;2022-12-29T04:52:34;12.10;;;1.20;;
75892;SDS011;64572;50.950;3.676;2022-12-29T04:55:00;7.38;;;1.13;;
75892;SDS011;64572;50.950;3.676;2022-12-29T04:57:26;8.75;;;1.55;;
75892;SDS011;64572;50.950;3.676;2022-12-29T04:59:52;9.68;;;1.30;;
75892;SDS011;64572;50.950;3.676;2022-12-29T05:02:18;6.40;;;1.13;;
75892;SDS011;64572;50.950;3.676;2022-12-29T05:04:43;13.25;;;1.90;;
75892;SDS011;64572;50.950;3.676;2022-12-29T05:07:09;8.77;;;1.60;;
75892;SDS011;64572;50.950;3.676;2022-12-29T05:09:35;9.00;;;1.23;;
75892;SDS011;64572;50.950;3.676;2022-12-29T05:12:01;8.52;;;1.25;;
75892;SDS011;64572;50.950;3.676;2022-12-29T05:14:26;4.90;;;1.13;;
75892;SDS011;64572;50.950;3.676;2022-12-29T05:16:52;11.93;;;1.38;;
75892;SDS011;64572;50.950;3.676;2022-12-29T05:19:18;7.72;;;1.40;;
75892;SDS011;64572;50.950;3.676;2022-12-29T05:21:43;9.43;;;1.40;;
75892;SDS011;64572;50.950;3.676;2022-12-29T05:24:09;11.43;;;1.50;;
75892;SDS011;64572;50.950;3.676;2022-12-29T05:26:35;8.63;;;1.42;;
75892;SDS011;64572;50.950;3.676;2022-12-29T05:29:00;6.70;;;1.25;;
75892;SDS011;64572;50.950;3.676;2022-12-29T05:31:26;14.80;;;2.60;;
75892;SDS011;64572;50.950;3.676;2022-12-29T05:33:52;10.55;;;2.00;;
75892;SDS011;64572;50.950;3.676;2022-12-29T05:36:18;13.38;;;1.60;;
75892;SDS011;64572;50.950;3.676;2022-12-29T05:38:44;6.95;;;1.27;;
75892;SDS011;64572;50.950;3.676;2022-12-29T05:41:09;10.65;;;1.33;;
75892;SDS011;64572;50.950;3.676;2022-12-29T05:43:35;11.13;;;1.98;;
75892;SDS011;64572;50.950;3.676;2022-12-29T05:46:01;12.60;;;1.52;;
75892;SDS011;64572;50.950;3.676;2022-12-29T05:48:27;13.75;;;1.58;;
75892;SDS011;64572;50.950;3.676;2022-12-29T05:50:53;11.05;;;1.50;;
75892;SDS011;64572;50.950;3.676;2022-12-29T05:53:19;11.93;;;1.50;;
75892;SDS011;64572;50.950;3.676;2022-12-29T05:55:46;13.48;;;1.73;;
75892;SDS011;64572;50.950;3.676;2022-12-29T05:58:12;11.95;;;1.67;;
75892;SDS011;64572;50.950;3.676;2022-12-29T06:00:38;8.77;;;1.58;;
75892;SDS011;64572;50.950;3.676;2022-12-29T06:03:04;11.43;;;1.50;;
75892;SDS011;64572;50.950;3.676;2022-12-29T06:05:30;14.90;;;1.85;;
75892;SDS011;64572;50.950;3.676;2022-12-29T06:07:56;12.05;;;1.67;;
75892;SDS011;64572;50.950;3.676;2022-12-29T06:10:21;15.98;;;2.00;;
75892;SDS011;64572;50.950;3.676;2022-12-29T06:12:47;11.70;;;1.63;;
75892;SDS011;64572;50.950;3.676;2022-12-29T06:15:13;9.38;;;1.40;;
75892;SDS011;64572;50.950;3.676;2022-12-29T06:17:39;13.63;;;1.92;;
75892;SDS011;64572;50.950;3.676;2022-12-29T06:20:06;16.98;;;2.22;;
75892;SDS011;64572;50.950;3.676;2022-12-29T06:22:32;14.13;;;1.70;;
75892;SDS011;64572;50.950;3.676;2022-12-29T06:24:58;17.27;;;1.85;;
75892;SDS011;64572;50.950;3.676;2022-12-29T06:27:24;13.10;;;2.20;;
75892;SDS011;64572;50.950;3.676;2022-12-29T06:29:50;14.63;;;2.10;;
75892;SDS011;64572;50.950;3.676;2022-12-29T06:32:16;15.30;;;2.15;;
75892;SDS011;64572;50.950;3.676;2022-12-29T06:34:42;18.25;;;2.35;;
75892;SDS011;64572;50.950;3.676;2022-12-29T06:37:09;11.43;;;2.20;;
75892;SDS011;64572;50.950;3.676;2022-12-29T06:39:35;13.00;;;2.00;;
75892;SDS011;64572;50.950;3.676;2022-12-29T06:42:01;17.38;;;3.35;;
75892;SDS011;64572;50.950;3.676;2022-12-29T06:44:27;14.63;;;2.13;;
75892;SDS011;64572;50.950;3.676;2022-12-29T06:46:53;12.23;;;2.42;;
75892;SDS011;64572;50.950;3.676;2022-12-29T06:49:19;9.30;;;2.05;;
75892;SDS011;64572;50.950;3.676;2022-12-29T06:51:45;12.13;;;1.75;;
75892;SDS011;64572;50.950;3.676;2022-12-29T06:54:11;21.60;;;2.60;;
75892;SDS011;64572;50.950;3.676;2022-12-29T06:56:36;10.00;;;1.52;;
75892;SDS011;64572;50.950;3.676;2022-12-29T06:59:02;13.52;;;2.20;;
75892;SDS011;64572;50.950;3.676;2022-12-29T07:01:28;15.68;;;2.28;;
75892;SDS011;64572;50.950;3.676;2022-12-29T07:03:54;17.13;;;2.42;;
75892;SDS011;64572;50.950;3.676;2022-12-29T07:06:20;15.02;;;1.90;;
75892;SDS011;64572;50.950;3.676;2022-12-29T07:08:46;14.15;;;2.05;;
75892;SDS011;64572;50.950;3.676;2022-12-29T07:11:11;10.80;;;1.90;;
75892;SDS011;64572;50.950;3.676;2022-12-29T07:13:37;12.60;;;1.90;;
75892;SDS011;64572;50.950;3.676;2022-12-29T07:16:06;17.17;;;2.30;;
75892;SDS011;64572;50.950;3.676;2022-12-29T07:18:33;15.07;;;2.25;;
75892;SDS011;64572;50.950;3.676;2022-12-29T07:21:00;15.80;;;2.30;;
75892;SDS011;64572;50.950;3.676;2022-12-29T07:23:26;9.15;;;1.45;;
75892;SDS011;64572;50.950;3.676;2022-12-29T07:26:01;13.55;;;1.98;;
75892;SDS011;64572;50.950;3.676;2022-12-29T07:28:30;18.55;;;2.42;;
75892;SDS011;64572;50.950;3.676;2022-12-29T07:30:57;18.67;;;2.28;;
75892;SDS011;64572;50.950;3.676;2022-12-29T07:33:23;19.05;;;2.55;;
75892;SDS011;64572;50.950;3.676;2022-12-29T07:35:49;16.33;;;2.97;;
75892;SDS011;64572;50.950;3.676;2022-12-29T07:38:15;11.77;;;2.03;;
75892;SDS011;64572;50.950;3.676;2022-12-29T07:40:41;10.45;;;1.73;;
75892;SDS011;64572;50.950;3.676;2022-12-29T07:43:07;15.02;;;2.22;;
75892;SDS011;64572;50.950;3.676;2022-12-29T07:45:33;15.73;;;2.63;;
75892;SDS011;64572;50.950;3.676;2022-12-29T07:47:59;16.83;;;2.80;;
75892;SDS011;64572;50.950;3.676;2022-12-29T07:50:24;9.35;;;1.65;;
75892;SDS011;64572;50.950;3.676;2022-12-29T07:52:50;17.48;;;2.72;;
75892;SDS011;64572;50.950;3.676;2022-12-29T07:55:16;20.58;;;3.00;;
75892;SDS011;64572;50.950;3.676;2022-12-29T07:57:42;19.17;;;2.40;;
75892;SDS011;64572;50.950;3.676;2022-12-29T08:00:08;18.70;;;2.67;;
75892;SDS011;64572;50.950;3.676;2022-12-29T08:02:35;17.20;;;2.47;;
75892;SDS011;64572;50.950;3.676;2022-12-29T08:05:00;17.48;;;2.63;;
75892;SDS011;64572;50.950;3.676;2022-12-29T08:07:26;17.95;;;2.20;;
75892;SDS011;64572;50.950;3.676;2022-12-29T08:09:52;14.88;;;2.00;;
75892;SDS011;64572;50.950;3.676;2022-12-29T08:12:18;13.93;;;2.30;;
75892;SDS011;64572;50.950;3.676;2022-12-29T08:14:44;15.98;;;2.30;;
75892;SDS011;64572;50.950;3.676;2022-12-29T08:17:09;15.73;;;1.90;;
75892;SDS011;64572;50.950;3.676;2022-12-29T08:19:35;21.77;;;2.60;;
75892;SDS011;64572;50.950;3.676;2022-12-29T08:22:02;14.68;;;2.10;;
75892;SDS011;64572;50.950;3.676;2022-12-29T08:24:28;20.55;;;2.90;;
75892;SDS011;64572;50.950;3.676;2022-12-29T08:26:53;18.23;;;3.35;;
75892;SDS011;64572;50.950;3.676;2022-12-29T08:29:19;16.23;;;3.30;;
75892;SDS011;64572;50.950;3.676;2022-12-29T08:31:46;21.15;;;2.65;;
75892;SDS011;64572;50.950;3.676;2022-12-29T08:34:12;19.48;;;2.50;;
75892;SDS011;64572;50.950;3.676;2022-12-29T08:36:38;15.15;;;2.33;;
75892;SDS011;64572;50.950;3.676;2022-12-29T08:39:04;22.42;;;3.10;;
75892;SDS011;64572;50.950;3.676;2022-12-29T08:41:30;17.80;;;2.33;;
75892;SDS011;64572;50.950;3.676;2022-12-29T08:43:55;18.15;;;2.38;;
75892;SDS011;64572;50.950;3.676;2022-12-29T08:46:21;16.80;;;2.78;;
75892;SDS011;64572;50.950;3.676;2022-12-29T08:48:47;15.40;;;2.45;;
75892;SDS011;64572;50.950;3.676;2022-12-29T08:51:13;16.33;;;3.42;;
75892;SDS011;64572;50.950;3.676;2022-12-29T08:53:39;16.13;;;2.47;;
75892;SDS011;64572;50.950;3.676;2022-12-29T08:56:05;17.08;;;2.28;;
75892;SDS011;64572;50.950;3.676;2022-12-29T08:58:31;21.88;;;2.47;;
75892;SDS011;64572;50.950;3.676;2022-12-29T09:00:57;21.90;;;2.97;;
75892;SDS011;64572;50.950;3.676;2022-12-29T09:03:23;13.15;;;2.53;;
75892;SDS011;64572;50.950;3.676;2022-12-29T09:05:50;18.60;;;2.60;;
75892;SDS011;64572;50.950;3.676;2022-12-29T09:08:17;19.00;;;2.92;;
75892;SDS011;64572;50.950;3.676;2022-12-29T09:10:43;22.33;;;3.30;;
75892;SDS011;64572;50.950;3.676;2022-12-29T09:13:10;19.98;;;2.92;;
75892;SDS011;64572;50.950;3.676;2022-12-29T09:15:37;24.35;;;2.97;;
75892;SDS011;64572;50.950;3.676;2022-12-29T09:18:03;17.52;;;3.10;;
75892;SDS011;64572;50.950;3.676;2022-12-29T09:20:29;22.02;;;3.10;;
75892;SDS011;64572;50.950;3.676;2022-12-29T09:22:55;25.25;;;2.65;;
75892;SDS011;64572;50.950;3.676;2022-12-29T09:25:21;22.00;;;3.38;;
75892;SDS011;64572;50.950;3.676;2022-12-29T09:27:49;22.13;;;3.05;;
75892;SDS011;64572;50.950;3.676;2022-12-29T09:30:17;17.55;;;2.50;;
75892;SDS011;64572;50.950;3.676;2022-12-29T09:32:43;24.33;;;2.80;;
75892;SDS011;64572;50.950;3.676;2022-12-29T09:35:09;23.10;;;2.92;;
75892;SDS011;64572;50.950;3.676;2022-12-29T09:37:35;24.58;;;3.55;;
75892;SDS011;64572;50.950;3.676;2022-12-29T09:40:01;28.55;;;4.25;;
75892;SDS011;64572;50.950;3.676;2022-12-29T09:45:32;21.85;;;4.05;;
75892;SDS011;64572;50.950;3.676;2022-12-29T09:47:59;24.48;;;3.75;;
75892;SDS011;64572;50.950;3.676;2022-12-29T09:50:29;21.00;;;2.90;;
75892;SDS011;64572;50.950;3.676;2022-12-29T09:53:02;23.38;;;4.38;;
75892;SDS011;64572;50.950;3.676;2022-12-29T09:55:42;23.67;;;3.50;;
75892;SDS011;64572;50.950;3.676;2022-12-29T09:58:30;25.70;;;3.03;;
75892;SDS011;64572;50.950;3.676;2022-12-29T10:03:48;18.67;;;3.05;;
75892;SDS011;64572;50.950;3.676;2022-12-29T10:19:46;22.85;;;3.03;;
75892;SDS011;64572;50.950;3.676;2022-12-29T10:25:17;27.48;;;3.63;;
75892;SDS011;64572;50.950;3.676;2022-12-29T10:27:46;22.58;;;3.00;;
75892;SDS011;64572;50.950;3.676;2022-12-29T10:30:13;19.58;;;3.03;;
75892;SDS011;64572;50.950;3.676;2022-12-29T10:32:43;16.77;;;2.08;;
75892;SDS011;64572;50.950;3.676;2022-12-29T10:35:23;17.02;;;2.47;;
75892;SDS011;64572;50.950;3.676;2022-12-29T10:40:25;16.48;;;2.17;;
75892;SDS011;64572;50.950;3.676;2022-12-29T10:43:07;13.15;;;2.08;;
75892;SDS011;64572;50.950;3.676;2022-12-29T10:45:47;15.18;;;2.47;;
75892;SDS011;64572;50.950;3.676;2022-12-29T10:48:23;13.93;;;2.17;;
75892;SDS011;64572;50.950;3.676;2022-12-29T10:50:58;16.35;;;2.30;;
75892;SDS011;64572;50.950;3.676;2022-12-29T10:54:10;14.02;;;2.00;;
75892;SDS011;64572;50.950;3.676;2022-12-29T10:56:33;14.93;;;2.47;;
75892;SDS011;64572;50.950;3.676;2022-12-29T11:04:55;18.80;;;3.08;;
75892;SDS011;64572;50.950;3.676;2022-12-29T11:07:29;13.73;;;2.33;;
75892;SDS011;64572;50.950;3.676;2022-12-29T11:09:55;14.73;;;1.98;;
75892;SDS011;64572;50.950;3.676;2022-12-29T11:12:56;15.57;;;2.63;;
75892;SDS011;64572;50.950;3.676;2022-12-29T11:15:27;11.77;;;1.90;;
75892;SDS011;64572;50.950;3.676;2022-12-29T11:18:03;14.32;;;2.42;;
75892;SDS011;64572;50.950;3.676;2022-12-29T11:20:30;8.70;;;1.85;;
75892;SDS011;64572;50.950;3.676;2022-12-29T11:22:59;14.95;;;2.00;;
75892;SDS011;64572;50.950;3.676;2022-12-29T11:25:25;16.38;;;1.92;;
75892;SDS011;64572;50.950;3.676;2022-12-29T11:27:54;14.25;;;1.75;;
75892;SDS011;64572;50.950;3.676;2022-12-29T11:30:27;20.20;;;2.55;;
75892;SDS011;64572;50.950;3.676;2022-12-29T11:32:55;17.33;;;2.00;;
75892;SDS011;64572;50.950;3.676;2022-12-29T11:35:31;17.08;;;2.17;;
75892;SDS011;64572;50.950;3.676;2022-12-29T11:38:04;12.88;;;1.75;;
75892;SDS011;64572;50.950;3.676;2022-12-29T11:40:30;19.85;;;2.33;;
75892;SDS011;64572;50.950;3.676;2022-12-29T11:43:01;15.82;;;2.33;;
75892;SDS011;64572;50.950;3.676;2022-12-29T11:45:29;17.27;;;2.63;;
75892;SDS011;64572;50.950;3.676;2022-12-29T11:50:33;16.58;;;2.30;;
75892;SDS011;64572;50.950;3.676;2022-12-29T11:53:06;19.05;;;2.83;;
75892;SDS011;64572;50.950;3.676;2022-12-29T11:55:32;11.88;;;2.75;;
75892;SDS011;64572;50.950;3.676;2022-12-29T11:58:00;16.70;;;2.22;;
75892;SDS011;64572;50.950;3.676;2022-12-29T12:00:31;20.70;;;3.13;;
75892;SDS011;64572;50.950;3.676;2022-12-29T12:03:01;16.15;;;2.20;;
75892;SDS011;64572;50.950;3.676;2022-12-29T12:11:04;10.15;;;1.70;;
75892;SDS011;64572;50.950;3.676;2022-12-29T12:13:46;18.58;;;2.15;;
75892;SDS011;64572;50.950;3.676;2022-12-29T12:16:18;11.77;;;1.80;;
75892;SDS011;64572;50.950;3.676;2022-12-29T12:18:49;15.45;;;2.00;;
75892;SDS011;64572;50.950;3.676;2022-12-29T12:21:26;10.70;;;1.85;;
75892;SDS011;64572;50.950;3.676;2022-12-29T12:24:23;13.73;;;1.92;;
75892;SDS011;64572;50.950;3.676;2022-12-29T12:26:55;15.73;;;2.10;;
75892;SDS011;64572;50.950;3.676;2022-12-29T12:32:12;9.25;;;1.50;;
75892;SDS011;64572;50.950;3.676;2022-12-29T12:34:43;10.45;;;2.30;;
75892;SDS011;64572;50.950;3.676;2022-12-29T12:45:25;13.50;;;1.90;;
75892;SDS011;64572;50.950;3.676;2022-12-29T12:48:07;9.07;;;2.00;;
75892;SDS011;64572;50.950;3.676;2022-12-29T13:22:09;9.00;;;1.67;;
75892;SDS011;64572;50.950;3.676;2022-12-29T13:24:40;18.02;;;1.95;;
75892;SDS011;64572;50.950;3.676;2022-12-29T13:30:14;10.55;;;2.00;;
75892;SDS011;64572;50.950;3.676;2022-12-29T13:38:22;10.20;;;1.98;;
75892;SDS011;64572;50.950;3.676;2022-12-29T13:41:03;8.38;;;1.13;;
75892;SDS011;64572;50.950;3.676;2022-12-29T13:43:34;4.93;;;1.20;;
75892;SDS011;64572;50.950;3.676;2022-12-29T13:46:19;8.98;;;1.13;;
75892;SDS011;64572;50.950;3.676;2022-12-29T13:48:53;7.90;;;1.40;;
75892;SDS011;64572;50.950;3.676;2022-12-29T13:51:29;9.57;;;1.20;;
75892;SDS011;64572;50.950;3.676;2022-12-29T13:59:52;5.35;;;1.40;;
75892;SDS011;64572;50.950;3.676;2022-12-29T14:07:43;4.70;;;1.33;;
75892;SDS011;64572;50.950;3.676;2022-12-29T14:29:54;9.77;;;1.23;;
75892;SDS011;64572;50.950;3.676;2022-12-29T14:32:33;8.35;;;1.60;;
75892;SDS011;64572;50.950;3.676;2022-12-29T15:30:55;13.82;;;2.03;;
75892;SDS011;64572;50.950;3.676;2022-12-29T15:33:36;13.45;;;1.92;;
75892;SDS011;64572;50.950;3.676;2022-12-29T15:36:08;11.60;;;2.00;;
75892;SDS011;64572;50.950;3.676;2022-12-29T15:38:46;15.18;;;2.40;;
75892;SDS011;64572;50.950;3.676;2022-12-29T15:41:19;12.20;;;2.38;;
75892;SDS011;64572;50.950;3.676;2022-12-29T15:43:57;13.70;;;3.22;;
75892;SDS011;64572;50.950;3.676;2022-12-29T15:48:57;15.70;;;2.13;;
75892;SDS011;64572;50.950;3.676;2022-12-29T15:51:28;19.13;;;2.38;;
75892;SDS011;64572;50.950;3.676;2022-12-29T15:53:58;13.48;;;2.70;;
75892;SDS011;64572;50.950;3.676;2022-12-29T15:56:24;16.95;;;2.50;;
75892;SDS011;64572;50.950;3.676;2022-12-29T15:58:54;16.42;;;3.38;;
75892;SDS011;64572;50.950;3.676;2022-12-29T16:01:23;17.42;;;2.75;;
75892;SDS011;64572;50.950;3.676;2022-12-29T16:04:01;23.50;;;3.63;;
75892;SDS011;64572;50.950;3.676;2022-12-29T16:08:59;14.57;;;2.90;;
75892;SDS011;64572;50.950;3.676;2022-12-29T16:11:36;16.85;;;3.03;;
75892;SDS011;64572;50.950;3.676;2022-12-29T16:14:13;16.42;;;3.28;;
75892;SDS011;64572;50.950;3.676;2022-12-29T16:16:44;19.42;;;3.47;;
75892;SDS011;64572;50.950;3.676;2022-12-29T16:19:14;16.20;;;3.80;;
75892;SDS011;64572;50.950;3.676;2022-12-29T16:21:44;18.42;;;3.38;;
75892;SDS011;64572;50.950;3.676;2022-12-29T16:24:23;24.17;;;4.05;;
75892;SDS011;64572;50.950;3.676;2022-12-29T16:26:58;14.77;;;2.63;;
75892;SDS011;64572;50.950;3.676;2022-12-29T16:29:31;23.50;;;4.20;;
75892;SDS011;64572;50.950;3.676;2022-12-29T16:31:58;22.90;;;4.07;;
75892;SDS011;64572;50.950;3.676;2022-12-29T16:34:27;21.10;;;3.30;;
75892;SDS011;64572;50.950;3.676;2022-12-29T16:36:57;25.02;;;3.80;;
75892;SDS011;64572;50.950;3.676;2022-12-29T16:41:51;25.85;;;4.13;;
75892;SDS011;64572;50.950;3.676;2022-12-29T16:44:25;27.15;;;3.78;;
75892;SDS011;64572;50.950;3.676;2022-12-29T16:49:34;22.17;;;3.88;;
75892;SDS011;64572;50.950;3.676;2022-12-29T16:52:01;25.50;;;3.22;;
75892;SDS011;64572;50.950;3.676;2022-12-29T16:54:44;32.63;;;4.05;;
75892;SDS011;64572;50.950;3.676;2022-12-29T16:57:35;24.92;;;3.25;;
75892;SDS011;64572;50.950;3.676;2022-12-29T17:00:17;19.52;;;3.30;;
75892;SDS011;64572;50.950;3.676;2022-12-29T17:02:44;23.40;;;3.63;;
75892;SDS011;64572;50.950;3.676;2022-12-29T17:05:15;22.55;;;4.03;;
75892;SDS011;64572;50.950;3.676;2022-12-29T17:07:42;17.55;;;3.30;;
75892;SDS011;64572;50.950;3.676;2022-12-29T17:10:09;18.88;;;2.78;;
75892;SDS011;64572;50.950;3.676;2022-12-29T17:12:35;28.15;;;4.57;;
75892;SDS011;64572;50.950;3.676;2022-12-29T17:17:35;23.75;;;3.90;;
75892;SDS011;64572;50.950;3.676;2022-12-29T17:20:05;22.73;;;3.00;;
75892;SDS011;64572;50.950;3.676;2022-12-29T17:22:49;22.75;;;4.05;;
75892;SDS011;64572;50.950;3.676;2022-12-29T17:25:18;23.55;;;3.97;;
75892;SDS011;64572;50.950;3.676;2022-12-29T17:27:46;28.58;;;4.97;;
75892;SDS011;64572;50.950;3.676;2022-12-29T17:30:36;22.02;;;3.72;;
75892;SDS011;64572;50.950;3.676;2022-12-29T17:33:04;20.13;;;3.47;;
75892;SDS011;64572;50.950;3.676;2022-12-29T17:35:38;25.42;;;4.50;;
75892;SDS011;64572;50.950;3.676;2022-12-29T17:38:16;22.85;;;4.72;;
75892;SDS011;64572;50.950;3.676;2022-12-29T17:40:50;20.20;;;4.00;;
75892;SDS011;64572;50.950;3.676;2022-12-29T17:43:16;24.23;;;4.38;;
75892;SDS011;64572;50.950;3.676;2022-12-29T17:45:42;25.50;;;4.10;;
75892;SDS011;64572;50.950;3.676;2022-12-29T17:48:12;22.85;;;3.80;;
75892;SDS011;64572;50.950;3.676;2022-12-29T17:50:38;25.10;;;4.10;;
75892;SDS011;64572;50.950;3.676;2022-12-29T17:53:06;23.83;;;3.55;;
75892;SDS011;64572;50.950;3.676;2022-12-29T17:55:36;20.20;;;3.22;;
75892;SDS011;64572;50.950;3.676;2022-12-29T17:58:10;25.20;;;4.35;;
75892;SDS011;64572;50.950;3.676;2022-12-29T18:00:44;21.92;;;7.07;;
75892;SDS011;64572;50.950;3.676;2022-12-29T18:03:14;20.98;;;5.90;;
75892;SDS011;64572;50.950;3.676;2022-12-29T18:05:42;26.23;;;8.88;;
75892;SDS011;64572;50.950;3.676;2022-12-29T18:08:08;23.23;;;5.15;;
75892;SDS011;64572;50.950;3.676;2022-12-29T18:10:36;23.17;;;5.83;;
75892;SDS011;64572;50.950;3.676;2022-12-29T18:13:02;27.70;;;7.30;;
75892;SDS011;64572;50.950;3.676;2022-12-29T18:15:29;26.90;;;4.93;;
75892;SDS011;64572;50.950;3.676;2022-12-29T18:20:44;27.00;;;10.02;;
75892;SDS011;64572;50.950;3.676;2022-12-29T18:23:24;23.70;;;7.27;;
75892;SDS011;64572;50.950;3.676;2022-12-29T18:28:26;25.25;;;5.97;;
75892;SDS011;64572;50.950;3.676;2022-12-29T18:30:52;18.52;;;3.95;;
75892;SDS011;64572;50.950;3.676;2022-12-29T18:33:20;20.20;;;3.88;;
75892;SDS011;64572;50.950;3.676;2022-12-29T18:38:25;22.23;;;5.22;;
75892;SDS011;64572;50.950;3.676;2022-12-29T18:40:52;13.93;;;3.35;;
75892;SDS011;64572;50.950;3.676;2022-12-29T18:43:18;18.90;;;3.95;;
75892;SDS011;64572;50.950;3.676;2022-12-29T18:45:44;15.23;;;2.47;;
75892;SDS011;64572;50.950;3.676;2022-12-29T18:48:11;12.25;;;3.13;;
75892;SDS011;64572;50.950;3.676;2022-12-29T18:50:38;14.55;;;2.50;;
75892;SDS011;64572;50.950;3.676;2022-12-29T18:53:03;12.98;;;3.05;;